createdAt,value
2022-11-29T00:01:05.509Z,12.85
2022-11-29T00:03:33.703Z,12.43
2022-11-29T00:06:08.674Z,13.15
2022-11-29T00:08:36.263Z,12.30
2022-11-29T00:11:12.000Z,11.93
2022-11-29T00:13:42.656Z,12.02
2022-11-29T00:16:12.106Z,11.77
2022-11-29T00:18:38.887Z,11.30
2022-11-29T00:21:09.527Z,13.32
2022-11-29T00:23:36.564Z,12.80
2022-11-29T00:26:05.388Z,13.18
2022-11-29T00:28:32.484Z,11.02
2022-11-29T00:30:59.256Z,12.77
2022-11-29T00:33:26.385Z,12.73
2022-11-29T00:35:53.126Z,12.15
2022-11-29T00:38:19.935Z,13.35
2022-11-29T00:40:51.767Z,12.43
2022-11-29T00:43:18.638Z,12.82
2022-11-29T00:45:45.366Z,13.50
2022-11-29T00:48:12.212Z,13.07
2022-11-29T00:50:39.004Z,14.85
2022-11-29T00:53:05.733Z,13.20
2022-11-29T00:55:32.455Z,13.43
2022-11-29T00:57:59.274Z,12.73
2022-11-29T01:00:25.986Z,14.30
2022-11-29T01:02:52.777Z,14.15
2022-11-29T01:05:19.487Z,13.80
2022-11-29T01:07:46.319Z,14.07
2022-11-29T01:10:13.083Z,13.38
2022-11-29T01:12:40.168Z,13.85
2022-11-29T01:15:08.848Z,16.52
2022-11-29T01:17:36.409Z,15.63
2022-11-29T01:20:04.974Z,14.27
2022-11-29T01:22:31.948Z,13.77
2022-11-29T01:24:58.641Z,13.93
2022-11-29T01:27:25.579Z,12.63
2022-11-29T01:29:52.288Z,12.10
2022-11-29T01:32:20.132Z,12.85
2022-11-29T01:34:47.024Z,12.88
2022-11-29T01:37:13.896Z,13.82
2022-11-29T01:39:40.589Z,13.32
2022-11-29T01:42:07.312Z,13.18
2022-11-29T01:44:33.942Z,13.15
2022-11-29T01:47:00.666Z,12.75
2022-11-29T01:49:29.344Z,13.20
2022-11-29T01:52:04.890Z,14.02
2022-11-29T01:54:34.734Z,14.00
2022-11-29T01:57:05.485Z,14.52
2022-11-29T01:59:32.777Z,14.02
2022-11-29T02:02:28.248Z,15.05
2022-11-29T02:04:56.665Z,14.43
2022-11-29T02:07:23.438Z,14.50
2022-11-29T02:09:50.168Z,15.95
2022-11-29T02:12:31.611Z,14.25
2022-11-29T02:15:37.150Z,14.57
2022-11-29T02:18:20.856Z,13.95
2022-11-29T02:21:08.893Z,15.40
2022-11-29T02:24:16.526Z,15.02
2022-11-29T02:26:52.218Z,14.40
2022-11-29T02:29:31.269Z,13.05
2022-11-29T02:32:19.193Z,13.85
2022-11-29T02:34:57.922Z,13.85
2022-11-29T02:37:27.507Z,13.38
2022-11-29T02:40:22.738Z,13.35
2022-11-29T02:43:10.814Z,13.50
2022-11-29T02:46:02.247Z,14.43
2022-11-29T02:48:52.034Z,13.85
2022-11-29T02:51:43.132Z,13.38
2022-11-29T02:54:16.686Z,13.20
2022-11-29T02:57:04.193Z,13.50
2022-11-29T02:59:46.917Z,13.27
2022-11-29T03:02:28.595Z,13.15
2022-11-29T03:05:01.827Z,13.02
2022-11-29T03:07:53.484Z,13.80
2022-11-29T03:10:51.819Z,12.10
2022-11-29T03:13:41.674Z,13.07
2022-11-29T03:16:17.902Z,12.48
2022-11-29T03:19:12.676Z,13.93
2022-11-29T03:22:05.291Z,12.20
2022-11-29T03:24:42.440Z,12.68
2022-11-29T03:27:16.474Z,12.57
2022-11-29T03:29:47.924Z,13.40
2022-11-29T03:32:32.996Z,12.40
2022-11-29T03:35:24.597Z,13.40
2022-11-29T03:38:09.932Z,12.50
2022-11-29T03:40:57.138Z,12.55
2022-11-29T03:43:31.751Z,12.80
2022-11-29T03:46:08.632Z,12.38
2022-11-29T03:48:48.225Z,12.88
2022-11-29T03:51:26.533Z,13.80
2022-11-29T03:54:09.358Z,13.30
2022-11-29T03:56:39.633Z,13.43
2022-11-29T03:59:15.209Z,14.23
2022-11-29T04:01:57.024Z,12.50
2022-11-29T04:04:42.614Z,11.95
2022-11-29T04:07:18.994Z,13.70
2022-11-29T04:10:15.900Z,11.60
2022-11-29T04:12:48.867Z,12.95
2022-11-29T04:15:15.783Z,11.00
2022-11-29T04:17:42.571Z,11.93
2022-11-29T04:20:18.315Z,12.30
2022-11-29T04:23:15.632Z,13.90
2022-11-29T04:25:48.492Z,11.10
2022-11-29T04:28:55.749Z,12.15
2022-11-29T04:31:37.963Z,11.75
2022-11-29T04:34:04.613Z,12.63
2022-11-29T04:36:55.987Z,12.27
2022-11-29T04:39:44.503Z,12.25
2022-11-29T04:42:29.830Z,12.48
2022-11-29T04:45:18.023Z,13.15
2022-11-29T04:47:59.512Z,12.73
2022-11-29T04:50:29.196Z,13.50
2022-11-29T04:53:17.726Z,12.75
2022-11-29T04:55:57.979Z,12.82
2022-11-29T04:58:42.127Z,14.10
2022-11-29T05:01:39.955Z,13.65
2022-11-29T05:04:39.315Z,14.13
2022-11-29T05:07:19.784Z,18.30
2022-11-29T05:10:38.062Z,30.17
2022-11-29T05:13:31.274Z,14.27
2022-11-29T05:16:26.509Z,13.27
2022-11-29T05:19:21.141Z,12.52
2022-11-29T05:22:15.750Z,11.85
2022-11-29T05:25:27.235Z,13.50
2022-11-29T05:28:20.411Z,12.95
2022-11-29T05:31:06.050Z,11.93
2022-11-29T05:33:45.239Z,13.02
2022-11-29T05:36:22.202Z,13.70
2022-11-29T05:39:01.296Z,13.63
2022-11-29T05:41:55.792Z,14.13
2022-11-29T05:44:37.741Z,15.77
2022-11-29T05:47:06.692Z,13.52
2022-11-29T05:49:39.294Z,13.82
2022-11-29T05:52:24.430Z,13.63
2022-11-29T05:55:06.269Z,14.77
2022-11-29T05:57:42.542Z,12.88
2022-11-29T06:00:14.665Z,13.63
2022-11-29T06:02:59.853Z,15.07
2022-11-29T06:06:03.099Z,12.93
2022-11-29T06:08:45.803Z,15.47
2022-11-29T06:11:27.895Z,13.90
2022-11-29T06:14:26.303Z,14.70
2022-11-29T06:17:02.360Z,14.40
2022-11-29T06:19:47.588Z,13.60
2022-11-29T06:22:21.409Z,13.68
2022-11-29T06:25:04.813Z,15.23
2022-11-29T06:28:12.360Z,13.23
2022-11-29T06:31:14.613Z,14.73
2022-11-29T06:33:51.735Z,14.07
2022-11-29T06:36:24.202Z,13.55
2022-11-29T06:38:51.149Z,15.48
2022-11-29T06:41:23.325Z,16.20
2022-11-29T06:43:51.057Z,14.77
2022-11-29T06:46:42.313Z,18.25
2022-11-29T06:49:28.320Z,20.02
2022-11-29T06:52:10.694Z,21.08
2022-11-29T06:55:06.095Z,28.35
2022-11-29T06:58:01.704Z,21.85
2022-11-29T07:00:41.997Z,21.00
2022-11-29T07:03:27.439Z,18.75
2022-11-29T07:05:54.503Z,20.17
2022-11-29T07:08:23.507Z,21.17
2022-11-29T07:10:53.244Z,21.20
2022-11-29T07:13:21.429Z,20.17
2022-11-29T07:16:03.685Z,20.55
2022-11-29T07:18:58.735Z,19.05
2022-11-29T07:21:38.181Z,20.98
2022-11-29T07:24:34.708Z,20.30
2022-11-29T07:27:21.122Z,18.98
2022-11-29T07:30:07.303Z,19.50
2022-11-29T07:33:00.466Z,19.80
2022-11-29T07:35:33.760Z,21.20
2022-11-29T07:38:16.157Z,20.90
2022-11-29T07:41:06.768Z,21.33
2022-11-29T07:44:03.183Z,24.58
2022-11-29T07:46:30.007Z,37.33
2022-11-29T07:48:56.811Z,30.70
2022-11-29T07:51:23.623Z,22.17
2022-11-29T07:53:50.455Z,21.17
2022-11-29T07:56:17.303Z,20.93
2022-11-29T07:58:44.176Z,19.67
2022-11-29T08:01:10.973Z,20.77
2022-11-29T08:03:37.975Z,20.98
2022-11-29T08:06:04.748Z,20.67
2022-11-29T08:08:31.515Z,19.95
2022-11-29T08:10:59.296Z,21.05
2022-11-29T08:13:26.053Z,20.02
2022-11-29T08:15:52.790Z,18.88
2022-11-29T08:18:19.531Z,20.40
2022-11-29T08:20:46.402Z,19.55
2022-11-29T08:23:14.445Z,19.75
2022-11-29T08:25:41.215Z,18.52
2022-11-29T08:28:08.575Z,19.02
2022-11-29T08:30:35.427Z,18.23
2022-11-29T08:33:02.233Z,19.63
2022-11-29T08:35:29.558Z,17.92
2022-11-29T08:37:56.430Z,17.60
2022-11-29T08:40:24.229Z,18.75
2022-11-29T08:42:51.075Z,19.70
2022-11-29T08:45:18.000Z,19.08
2022-11-29T08:47:44.756Z,19.17
2022-11-29T08:50:16.995Z,28.90
2022-11-29T08:53:05.457Z,33.97
2022-11-29T08:55:42.556Z,18.42
2022-11-29T08:58:14.943Z,19.30
2022-11-29T09:00:44.235Z,19.52
2022-11-29T09:03:29.683Z,16.45
2022-11-29T09:05:57.608Z,18.23
2022-11-29T09:08:24.441Z,17.38
2022-11-29T09:10:51.237Z,16.73
2022-11-29T09:13:18.240Z,17.95
2022-11-29T09:15:45.021Z,17.70
2022-11-29T09:18:11.974Z,17.83
2022-11-29T09:20:41.628Z,16.75
2022-11-29T09:23:08.389Z,15.95
2022-11-29T09:25:35.105Z,16.08
2022-11-29T09:28:03.067Z,16.25
2022-11-29T09:30:31.681Z,16.38
2022-11-29T09:33:05.164Z,16.13
2022-11-29T09:35:32.533Z,16.20
2022-11-29T09:37:59.323Z,16.00
2022-11-29T09:40:38.807Z,14.90
2022-11-29T09:43:23.294Z,16.73
2022-11-29T09:46:05.129Z,15.18
2022-11-29T09:48:44.122Z,14.52
2022-11-29T09:51:19.862Z,15.05
2022-11-29T09:54:05.423Z,14.23
2022-11-29T09:56:38.525Z,14.63
2022-11-29T09:59:22.856Z,14.27
2022-11-29T10:01:57.923Z,15.32
2022-11-29T10:04:36.396Z,12.77
2022-11-29T10:07:13.979Z,13.93
2022-11-29T10:10:03.701Z,12.40
2022-11-29T10:12:50.245Z,13.93
2022-11-29T10:15:29.252Z,11.63
2022-11-29T10:17:55.950Z,12.68
2022-11-29T10:20:25.971Z,14.40
2022-11-29T10:22:54.539Z,13.70
2022-11-29T10:25:25.931Z,12.40
2022-11-29T10:27:53.352Z,10.57
2022-11-29T10:30:20.315Z,12.57
2022-11-29T10:32:52.115Z,12.75
2022-11-29T10:35:20.037Z,13.32
2022-11-29T10:38:07.669Z,11.55
2022-11-29T10:40:37.746Z,11.38
2022-11-29T10:43:04.807Z,12.60
2022-11-29T10:45:35.267Z,13.80
2022-11-29T10:48:12.690Z,14.63
2022-11-29T10:50:43.886Z,14.20
2022-11-29T10:53:38.754Z,13.90
2022-11-29T10:56:13.815Z,14.23
2022-11-29T10:58:56.059Z,13.30
2022-11-29T11:01:24.226Z,12.52
2022-11-29T11:03:56.007Z,13.07
2022-11-29T11:06:26.459Z,14.30
2022-11-29T11:08:57.432Z,12.93
2022-11-29T11:11:33.798Z,13.02
2022-11-29T11:14:04.829Z,11.60
2022-11-29T11:16:37.124Z,12.68
2022-11-29T11:19:26.114Z,12.05
2022-11-29T11:21:53.495Z,11.07
2022-11-29T11:24:41.902Z,13.70
2022-11-29T11:27:08.783Z,12.10
2022-11-29T11:29:39.432Z,13.30
2022-11-29T11:32:19.104Z,17.58
2022-11-29T11:34:55.732Z,14.90
2022-11-29T11:37:33.610Z,17.10
2022-11-29T11:40:30.485Z,13.38
2022-11-29T11:43:01.186Z,13.73
2022-11-29T11:45:38.819Z,11.68
2022-11-29T11:48:14.250Z,13.57
2022-11-29T11:50:43.730Z,13.10
2022-11-29T11:53:23.790Z,13.93
2022-11-29T11:56:12.315Z,13.48
2022-11-29T11:58:49.870Z,13.27
2022-11-29T12:01:39.252Z,14.10
2022-11-29T12:04:22.351Z,14.60
2022-11-29T12:07:01.105Z,13.73
2022-11-29T12:09:42.485Z,13.97
2022-11-29T12:12:18.507Z,13.73
2022-11-29T12:14:58.654Z,12.93
2022-11-29T12:17:37.772Z,14.63
2022-11-29T12:20:25.916Z,13.17
2022-11-29T12:23:11.478Z,14.60
2022-11-29T12:25:59.405Z,15.30
2022-11-29T12:28:32.944Z,13.98
2022-11-29T12:31:26.771Z,12.60
2022-11-29T12:34:22.735Z,15.20
2022-11-29T12:36:55.762Z,20.60
2022-11-29T12:39:45.259Z,38.73
2022-11-29T12:42:45.472Z,20.27
2022-11-29T12:45:27.544Z,13.23
2022-11-29T12:48:04.669Z,11.67
2022-11-29T12:50:52.243Z,12.00
2022-11-29T12:53:32.649Z,12.53
2022-11-29T12:56:15.262Z,11.27
2022-11-29T12:59:01.378Z,12.52
2022-11-29T13:01:57.735Z,13.30
2022-11-29T13:04:41.866Z,11.30
2022-11-29T13:07:17.768Z,10.07
2022-11-29T13:09:57.056Z,8.82
2022-11-29T13:12:23.775Z,6.82
2022-11-29T13:14:56.564Z,5.72
2022-11-29T13:17:37.920Z,6.63
2022-11-29T13:20:34.749Z,5.30
2022-11-29T13:23:14.303Z,6.20
2022-11-29T13:25:44.139Z,5.50
2022-11-29T13:28:27.611Z,5.60
2022-11-29T13:31:00.201Z,5.57
2022-11-29T13:33:34.221Z,6.78
2022-11-29T13:36:28.635Z,12.20
2022-11-29T13:39:32.963Z,7.05
2022-11-29T13:49:59.917Z,7.28
2022-11-29T13:52:46.639Z,7.90
2022-11-29T13:55:14.528Z,8.37
2022-11-29T13:58:15.075Z,8.57
2022-11-29T14:00:43.846Z,9.27
2022-11-29T14:03:28.457Z,9.38
2022-11-29T14:05:55.173Z,9.73
2022-11-29T14:09:02.385Z,8.23
2022-11-29T14:11:56.508Z,9.07
2022-11-29T14:14:33.450Z,9.70
2022-11-29T14:17:05.732Z,8.27
2022-11-29T14:19:35.295Z,8.68
2022-11-29T14:22:02.053Z,8.75
2022-11-29T14:24:37.910Z,8.95
2022-11-29T14:27:10.209Z,9.77
2022-11-29T14:29:55.171Z,9.15
2022-11-29T14:32:56.882Z,10.93
2022-11-29T14:35:52.452Z,10.70
2022-11-29T14:38:46.294Z,9.52
2022-11-29T14:41:51.641Z,8.35
2022-11-29T14:44:21.035Z,9.35
2022-11-29T14:46:58.983Z,8.63
2022-11-29T14:49:27.553Z,11.00
2022-11-29T14:52:13.085Z,9.60
2022-11-29T14:55:05.644Z,9.30
2022-11-29T14:57:50.381Z,9.67
2022-11-29T15:00:26.420Z,10.15
2022-11-29T15:03:12.853Z,8.90
2022-11-29T15:05:50.884Z,9.32
2022-11-29T15:08:26.781Z,9.88
2022-11-29T15:10:58.815Z,7.38
2022-11-29T15:13:31.764Z,8.60
2022-11-29T15:16:18.966Z,6.85
2022-11-29T15:19:34.995Z,7.38
2022-11-29T15:22:18.923Z,8.88
2022-11-29T15:25:02.851Z,8.40
2022-11-29T15:27:29.593Z,8.73
2022-11-29T15:29:56.319Z,9.05
2022-11-29T15:32:27.955Z,8.05
2022-11-29T15:34:56.755Z,9.20
2022-11-29T15:37:45.004Z,8.07
2022-11-29T15:40:20.277Z,8.30
2022-11-29T15:42:58.088Z,8.88
2022-11-29T15:45:36.437Z,8.88
2022-11-29T15:48:23.781Z,9.27
2022-11-29T15:51:02.429Z,9.13
2022-11-29T15:53:37.653Z,9.68
2022-11-29T15:56:19.069Z,9.75
2022-11-29T15:58:47.949Z,10.27
2022-11-29T16:01:21.262Z,11.00
2022-11-29T16:03:53.214Z,10.52
2022-11-29T16:06:39.388Z,10.40
2022-11-29T16:09:10.545Z,9.13
2022-11-29T16:11:38.136Z,10.30
2022-11-29T16:14:43.119Z,11.48
2022-11-29T16:17:10.029Z,10.43
2022-11-29T16:19:38.092Z,10.40
2022-11-29T16:22:17.234Z,10.32
2022-11-29T16:24:52.048Z,10.55
2022-11-29T16:27:20.559Z,12.38
2022-11-29T16:29:48.353Z,12.18
2022-11-29T16:32:33.727Z,10.77
2022-11-29T16:35:20.772Z,12.15
2022-11-29T16:37:48.191Z,12.38
2022-11-29T16:40:28.339Z,12.88
2022-11-29T16:43:03.982Z,11.40
2022-11-29T16:45:38.278Z,11.45
2022-11-29T16:48:23.642Z,12.52
2022-11-29T16:51:16.099Z,12.55
2022-11-29T16:53:53.140Z,12.85
2022-11-29T16:56:24.299Z,12.93
2022-11-29T16:59:17.018Z,13.95
2022-11-29T17:01:46.801Z,13.95
2022-11-29T17:04:13.624Z,15.45
2022-11-29T17:06:51.214Z,15.10
2022-11-29T17:09:31.595Z,15.05
2022-11-29T17:12:00.592Z,16.30
2022-11-29T17:14:28.548Z,15.27
2022-11-29T17:16:55.851Z,15.80
2022-11-29T17:19:23.831Z,16.25
2022-11-29T17:21:52.076Z,15.50
2022-11-29T17:24:20.732Z,15.68
2022-11-29T17:26:47.524Z,14.32
2022-11-29T17:29:15.878Z,13.65
2022-11-29T17:31:46.606Z,12.85
2022-11-29T17:34:13.490Z,12.85
2022-11-29T17:36:40.652Z,11.68
2022-11-29T17:39:07.910Z,14.02
2022-11-29T17:41:35.181Z,15.85
2022-11-29T17:44:02.030Z,14.65
2022-11-29T17:46:31.868Z,16.05
2022-11-29T17:49:00.092Z,13.15
2022-11-29T17:54:14.278Z,12.13
2022-11-29T17:56:41.017Z,12.65
2022-11-29T17:59:07.763Z,11.63
2022-11-29T18:01:36.162Z,11.25
2022-11-29T18:04:05.438Z,12.02
2022-11-29T18:06:40.246Z,12.55
2022-11-29T18:09:09.056Z,11.82
2022-11-29T18:11:46.422Z,12.40
2022-11-29T18:14:16.987Z,13.43
2022-11-29T18:16:45.388Z,11.85
2022-11-29T18:19:15.376Z,13.00
2022-11-29T18:21:42.172Z,12.80
2022-11-29T18:24:09.872Z,13.07
2022-11-29T18:26:37.439Z,13.30
2022-11-29T18:29:05.635Z,13.45
2022-11-29T18:31:35.203Z,13.63
2022-11-29T18:34:07.093Z,14.63
2022-11-29T18:36:37.141Z,14.32
2022-11-29T18:39:08.905Z,14.90
2022-11-29T18:41:36.492Z,15.55
2022-11-29T18:44:09.626Z,15.75
2022-11-29T18:46:38.892Z,16.98
2022-11-29T18:49:14.514Z,15.68
2022-11-29T18:51:45.558Z,16.50
2022-11-29T18:54:14.334Z,19.77
2022-11-29T18:56:41.852Z,17.40
2022-11-29T18:59:13.024Z,18.40
2022-11-29T19:01:42.567Z,21.27
2022-11-29T19:04:20.706Z,21.60
2022-11-29T19:06:48.050Z,20.33
2022-11-29T19:09:19.254Z,18.23
2022-11-29T19:11:46.098Z,20.88
2022-11-29T19:14:13.251Z,21.27
2022-11-29T19:16:42.481Z,22.92
2022-11-29T19:19:09.968Z,20.50
2022-11-29T19:21:37.151Z,21.15
2022-11-29T19:24:06.829Z,22.10
2022-11-29T19:26:34.835Z,20.98
2022-11-29T19:29:01.988Z,20.23
2022-11-29T19:31:29.199Z,22.60
2022-11-29T19:33:57.238Z,23.13
2022-11-29T19:36:26.428Z,22.95
2022-11-29T19:38:54.667Z,20.80
2022-11-29T19:41:24.239Z,22.77
2022-11-29T19:43:51.270Z,21.35
2022-11-29T19:46:23.649Z,23.95
2022-11-29T19:48:52.960Z,21.77
2022-11-29T19:51:20.476Z,23.48
2022-11-29T19:53:47.725Z,25.88
2022-11-29T19:56:16.455Z,21.52
2022-11-29T19:58:43.990Z,23.05
2022-11-29T20:01:13.468Z,23.02
2022-11-29T20:03:41.213Z,23.58
2022-11-29T20:06:09.274Z,22.55
2022-11-29T20:08:36.985Z,23.52
2022-11-29T20:11:21.451Z,25.02
2022-11-29T20:13:54.440Z,21.90
2022-11-29T20:16:22.021Z,24.15
2022-11-29T20:18:51.146Z,23.90
2022-11-29T20:21:24.097Z,26.15
2022-11-29T20:24:01.943Z,24.73
2022-11-29T20:26:31.181Z,23.83
2022-11-29T20:28:58.831Z,25.58
2022-11-29T20:31:25.917Z,25.38
2022-11-29T20:33:57.589Z,23.27
2022-11-29T20:36:46.388Z,24.98
2022-11-29T20:39:13.045Z,23.13
2022-11-29T20:41:54.714Z,25.13
2022-11-29T20:44:33.070Z,23.50
2022-11-29T20:47:00.796Z,25.08
2022-11-29T20:49:27.877Z,24.05
2022-11-29T20:52:05.708Z,23.35
2022-11-29T20:54:32.544Z,22.20
2022-11-29T20:56:59.272Z,21.10
2022-11-29T20:59:25.979Z,28.17
2022-11-29T21:01:52.918Z,27.77
2022-11-29T21:04:23.315Z,26.63
2022-11-29T21:06:50.495Z,24.05
2022-11-29T21:09:17.349Z,24.25
2022-11-29T21:11:44.690Z,25.58
2022-11-29T21:14:11.681Z,24.73
2022-11-29T21:16:38.654Z,25.13
2022-11-29T21:19:05.664Z,26.20
2022-11-29T21:21:58.811Z,26.00
2022-11-29T21:25:03.114Z,26.05
2022-11-29T21:27:34.497Z,26.63
2022-11-29T21:30:05.420Z,27.33
2022-11-29T21:32:33.346Z,25.60
2022-11-29T21:35:00.123Z,27.17
2022-11-29T21:37:29.852Z,26.20
2022-11-29T21:39:57.362Z,25.50
2022-11-29T21:42:24.183Z,23.00
2022-11-29T21:44:50.890Z,26.17
2022-11-29T21:47:17.683Z,26.15
2022-11-29T21:49:44.999Z,27.00
2022-11-29T21:52:11.815Z,27.20
2022-11-29T21:54:39.878Z,30.05
2022-11-29T21:57:06.703Z,26.85
2022-11-29T21:59:33.505Z,27.90
2022-11-29T22:02:00.866Z,26.58
2022-11-29T22:04:27.944Z,24.40
2022-11-29T22:06:54.843Z,25.27
2022-11-29T22:09:21.696Z,25.25
2022-11-29T22:11:48.476Z,25.25
2022-11-29T22:14:18.990Z,23.30
2022-11-29T22:16:50.224Z,24.58
2022-11-29T22:19:20.166Z,25.58
2022-11-29T22:21:49.571Z,26.88
2022-11-29T22:24:18.523Z,25.38
2022-11-29T22:26:46.267Z,25.10
2022-11-29T22:29:14.195Z,26.15
2022-11-29T22:31:42.891Z,25.98
2022-11-29T22:34:10.171Z,28.60
2022-11-29T22:36:37.663Z,25.13
2022-11-29T22:39:05.618Z,26.40
2022-11-29T22:41:33.586Z,27.45
2022-11-29T22:44:00.370Z,24.67
2022-11-29T22:46:28.566Z,25.42
2022-11-29T22:48:56.950Z,25.42
2022-11-29T22:51:26.109Z,25.45
2022-11-29T22:53:57.758Z,26.67
2022-11-29T22:56:30.749Z,25.48
2022-11-29T22:58:57.687Z,26.42
2022-11-29T23:01:26.708Z,26.30
2022-11-29T23:03:56.252Z,23.67
2022-11-29T23:06:28.698Z,24.35
2022-11-29T23:08:58.197Z,27.77
2022-11-29T23:11:29.498Z,25.17
2022-11-29T23:13:56.744Z,27.15
2022-11-29T23:16:26.081Z,25.25
2022-11-29T23:18:53.916Z,23.33
2022-11-29T23:21:23.905Z,24.35
2022-11-29T23:23:55.996Z,24.13
2022-11-29T23:26:27.088Z,21.77
2022-11-29T23:28:54.808Z,23.63
2022-11-29T23:31:23.114Z,24.23
2022-11-29T23:33:50.041Z,25.00
2022-11-29T23:36:17.309Z,23.08
2022-11-29T23:38:44.577Z,24.95
2022-11-29T23:41:11.740Z,23.63
2022-11-29T23:43:40.642Z,25.30
2022-11-29T23:46:20.703Z,23.80
2022-11-29T23:48:48.298Z,23.35
2022-11-29T23:51:16.283Z,22.48
2022-11-29T23:53:43.541Z,23.63
2022-11-29T23:56:13.809Z,22.45
2022-11-29T23:58:41.090Z,24.30
